Time;durP1;ratioP1;P1;durP2;ratioP2;P2;SDS_P1;SDS_P2;PMS_P1;PMS_P2;Temp;Humidity;BMP_temperature;BMP_pressure;BME280_temperature;BME280_humidity;BME280_pressure;Samples;Min_cycle;Max_cycle;Signal;HPM_P1;HPM_P2
2021/11/21 00:00:15;;;;;;;13.73;6.45;;;18.40;56.00;;;;;;5019429;28;20045;-53
2021/11/21 00:02:46;;;;;;;13.02;6.22;;;18.50;55.50;;;;;;5021074;28;20045;-55
2021/11/21 00:05:16;;;;;;;13.90;6.57;;;18.40;55.60;;;;;;5020955;28;20057;-54
2021/11/21 00:07:50;;;;;;;12.82;6.35;;;18.20;54.80;;;;;;5020299;28;20049;-53
2021/11/21 00:10:24;;;;;;;13.93;6.57;;;18.20;55.40;;;;;;5022138;28;20350;-54
2021/11/21 00:12:51;;;;;;;10.80;5.20;;;18.10;55.20;;;;;;5019659;28;20053;-54
2021/11/21 00:15:18;;;;;;;10.25;5.28;;;18.10;56.20;;;;;;5023355;28;20048;-54
2021/11/21 00:17:44;;;;;;;11.27;5.43;;;18.30;56.40;;;;;;5008869;28;20140;-53
2021/11/21 00:20:16;;;;;;;13.88;5.85;;;18.30;56.20;;;;;;5017082;28;20054;-56
2021/11/21 00:22:44;;;;;;;11.13;5.53;;;18.40;56.00;;;;;;5017284;28;20441;-55
2021/11/21 00:25:13;;;;;;;12.18;5.05;;;18.40;56.10;;;;;;5016603;28;20045;-54
2021/11/21 00:27:40;;;;;;;10.27;5.82;;;18.50;56.30;;;;;;5021282;28;20075;-55
2021/11/21 00:30:08;;;;;;;10.45;5.57;;;18.50;56.10;;;;;;5018347;28;20403;-55
2021/11/21 00:32:34;;;;;;;9.68;4.38;;;18.50;56.00;;;;;;5019176;28;20052;-54
2021/11/21 00:35:01;;;;;;;8.77;4.50;;;18.60;55.90;;;;;;5019122;28;20061;-56
2021/11/21 00:37:29;;;;;;;10.25;5.15;;;18.60;56.20;;;;;;5019923;28;20483;-55
2021/11/21 00:39:57;;;;;;;9.95;4.90;;;18.60;56.30;;;;;;5020134;28;20049;-55
2021/11/21 00:42:25;;;;;;;10.95;5.30;;;18.60;55.60;;;;;;5019241;28;20376;-54
2021/11/21 00:44:52;;;;;;;8.50;4.43;;;18.60;55.80;;;;;;5017938;28;20045;-54
2021/11/21 00:47:20;;;;;;;10.18;5.00;;;18.60;56.00;;;;;;5018585;28;20044;-54
2021/11/21 00:49:47;;;;;;;9.05;5.05;;;18.60;55.50;;;;;;5015804;28;20446;-55
2021/11/21 00:52:14;;;;;;;9.68;5.10;;;18.60;55.50;;;;;;5017467;28;20053;-54
2021/11/21 00:54:47;;;;;;;8.10;4.38;;;18.60;55.60;;;;;;5020690;28;20049;-56
2021/11/21 00:57:16;;;;;;;9.32;5.05;;;18.60;55.70;;;;;;5018681;28;20037;-54
2021/11/21 00:59:44;;;;;;;9.18;4.72;;;18.60;55.30;;;;;;5016570;28;20061;-54
2021/11/21 01:02:12;;;;;;;8.82;4.70;;;18.60;55.80;;;;;;5015406;28;20049;-54
2021/11/21 01:04:41;;;;;;;11.52;5.50;;;18.60;55.90;;;;;;5018720;28;20092;-53
2021/11/21 01:07:10;;;;;;;10.23;5.88;;;18.60;55.30;;;;;;5018789;28;20276;-53
2021/11/21 01:09:37;;;;;;;10.77;5.28;;;18.40;55.00;;;;;;5017688;28;20061;-54
2021/11/21 01:12:08;;;;;;;10.68;5.95;;;18.20;54.90;;;;;;5020331;28;20502;-55
2021/11/21 01:14:35;;;;;;;12.43;5.47;;;18.10;55.70;;;;;;5019490;28;20047;-54
2021/11/21 01:17:04;;;;;;;11.57;5.82;;;18.10;54.90;;;;;;5018039;28;20055;-55
2021/11/21 01:19:34;;;;;;;11.77;6.10;;;18.00;55.60;;;;;;5019021;28;20081;-55
2021/11/21 01:22:01;;;;;;;11.95;6.38;;;18.00;54.80;;;;;;5024100;28;20054;-55
2021/11/21 01:24:32;;;;;;;10.25;5.70;;;17.90;54.60;;;;;;5023074;28;20060;-55
2021/11/21 01:26:59;;;;;;;12.80;6.22;;;17.90;54.80;;;;;;5019291;28;20053;-54
2021/11/21 01:29:26;;;;;;;14.25;6.53;;;17.80;54.50;;;;;;5010025;28;20049;-54
2021/11/21 01:31:53;;;;;;;13.00;6.20;;;17.60;54.50;;;;;;5018609;28;20577;-54
2021/11/21 01:34:22;;;;;;;12.13;6.15;;;17.60;54.90;;;;;;5017952;28;20046;-55
2021/11/21 01:36:48;;;;;;;14.40;6.70;;;17.50;55.10;;;;;;5017600;28;20049;-55
2021/11/21 01:39:15;;;;;;;14.38;7.18;;;17.60;54.40;;;;;;5020130;28;20423;-54
2021/11/21 01:41:43;;;;;;;12.73;6.70;;;17.40;54.40;;;;;;5019672;28;20049;-56
2021/11/21 01:44:12;;;;;;;14.52;6.60;;;17.30;55.00;;;;;;5022015;28;20049;-54
2021/11/21 01:46:41;;;;;;;10.82;5.75;;;17.40;55.10;;;;;;5024020;28;20045;-54
2021/11/21 01:49:09;;;;;;;12.85;7.18;;;17.50;55.30;;;;;;5024785;28;20041;-55
2021/11/21 01:51:38;;;;;;;12.20;6.63;;;17.70;54.20;;;;;;5022711;28;20084;-55
2021/11/21 01:54:06;;;;;;;10.65;5.95;;;17.90;53.30;;;;;;5021912;28;20037;-55
2021/11/21 01:56:33;;;;;;;12.63;7.10;;;17.80;53.70;;;;;;5023493;28;20041;-55
2021/11/21 01:59:00;;;;;;;12.30;6.40;;;17.90;53.40;;;;;;5021681;28;20672;-54
2021/11/21 02:01:27;;;;;;;13.93;5.93;;;17.70;53.60;;;;;;5021855;28;20049;-54
2021/11/21 02:03:54;;;;;;;12.38;6.03;;;17.70;53.70;;;;;;5022148;28;20045;-54
2021/11/21 02:06:21;;;;;;;11.40;5.93;;;17.80;53.80;;;;;;5024193;28;20111;-54
2021/11/21 02:08:53;;;;;;;11.05;5.53;;;17.80;54.50;;;;;;5024031;28;20049;-55
2021/11/21 02:11:20;;;;;;;11.15;5.93;;;17.80;54.00;;;;;;5022731;28;20061;-56
2021/11/21 02:13:49;;;;;;;13.18;6.00;;;17.70;53.90;;;;;;5025056;28;20042;-55
2021/11/21 02:16:17;;;;;;;12.20;6.18;;;17.60;54.00;;;;;;5026017;28;20041;-54
2021/11/21 02:18:45;;;;;;;10.55;5.88;;;17.60;54.20;;;;;;5022341;28;20056;-56
2021/11/21 02:21:14;;;;;;;13.45;7.10;;;17.60;54.60;;;;;;5022312;28;20072;-55
2021/11/21 02:23:42;;;;;;;;;;;17.50;54.30;;;;;;5022524;28;20060;-54
2021/11/21 02:26:09;;;;;;;15.35;6.95;;;17.40;54.50;;;;;;5022932;28;19925;-54
2021/11/21 02:28:38;;;;;;;11.98;6.97;;;17.30;54.40;;;;;;5020007;28;20080;-55
2021/11/21 02:31:05;;;;;;;13.10;6.88;;;17.20;54.50;;;;;;5010426;28;20088;-55
2021/11/21 02:33:34;;;;;;;12.88;6.97;;;17.10;54.90;;;;;;5022448;28;20065;-55
2021/11/21 02:36:05;;;;;;;10.93;5.45;;;17.10;55.10;;;;;;5017715;28;20041;-54
2021/11/21 02:38:38;;;;;;;11.32;6.25;;;17.10;55.60;;;;;;5018132;28;20095;-55
2021/11/21 02:41:07;;;;;;;13.87;7.23;;;17.00;56.00;;;;;;5019012;28;20057;-54
2021/11/21 02:43:43;;;;;;;11.05;6.13;;;17.10;55.60;;;;;;5019074;28;20533;-53
2021/11/21 02:46:10;;;;;;;12.90;6.68;;;17.10;55.40;;;;;;5019066;28;20189;-56
2021/11/21 02:48:38;;;;;;;12.48;6.82;;;17.10;55.50;;;;;;5022278;28;20042;-55
2021/11/21 02:51:07;;;;;;;14.15;6.57;;;17.00;55.50;;;;;;5019846;28;20045;-55
2021/11/21 02:53:37;;;;;;;14.00;6.88;;;16.90;55.60;;;;;;5018693;28;20045;-54
2021/11/21 02:56:07;;;;;;;10.13;5.38;;;16.90;55.80;;;;;;5019605;28;20041;-55
2021/11/21 02:58:35;;;;;;;11.52;6.53;;;16.90;56.00;;;;;;5021194;28;20083;-54
2021/11/21 03:01:05;;;;;;;12.30;6.57;;;16.80;55.80;;;;;;5018323;28;20156;-54
2021/11/21 03:03:32;;;;;;;13.55;6.57;;;16.80;56.00;;;;;;5024961;28;20055;-55
2021/11/21 03:06:00;;;;;;;11.45;6.15;;;16.80;56.20;;;;;;5024524;28;20053;-54
2021/11/21 03:08:27;;;;;;;11.65;5.15;;;16.90;56.20;;;;;;5021930;28;20542;-55
2021/11/21 03:11:15;;;;;;;10.18;4.82;;;17.00;56.40;;;;;;5027045;28;20049;-55
2021/11/21 03:13:42;;;;;;;9.95;5.25;;;17.20;56.30;;;;;;5027216;28;20140;-55
2021/11/21 03:16:09;;;;;;;10.27;4.78;;;17.20;56.00;;;;;;5028043;28;20042;-55
2021/11/21 03:18:37;;;;;;;9.38;5.78;;;17.30;56.20;;;;;;5027740;28;20045;-55
2021/11/21 03:21:04;;;;;;;11.00;6.13;;;17.30;55.50;;;;;;5027605;28;20526;-55
2021/11/21 03:23:32;;;;;;;12.52;6.50;;;17.20;55.80;;;;;;5027768;28;20046;-55
2021/11/21 03:25:59;;;;;;;11.88;6.30;;;17.10;55.80;;;;;;5026131;28;20438;-54
2021/11/21 03:28:27;;;;;;;10.60;5.93;;;17.10;56.00;;;;;;5020988;28;20132;-53
2021/11/21 03:30:54;;;;;;;10.95;6.03;;;17.10;56.20;;;;;;5019227;28;20123;-54
2021/11/21 03:33:21;;;;;;;10.35;5.57;;;17.00;56.20;;;;;;5022982;28;20084;-56
2021/11/21 03:35:48;;;;;;;11.52;5.82;;;17.00;56.90;;;;;;5020870;28;20467;-57
2021/11/21 03:38:15;;;;;;;9.75;5.13;;;17.20;56.70;;;;;;5025376;28;20045;-56
2021/11/21 03:40:42;;;;;;;9.00;5.20;;;17.30;56.70;;;;;;5026218;28;20339;-55
2021/11/21 03:43:09;;;;;;;9.73;5.03;;;17.40;56.70;;;;;;5024594;28;20067;-54
2021/11/21 03:45:38;;;;;;;9.15;4.85;;;17.60;56.70;;;;;;5025068;28;20101;-56
2021/11/21 03:48:05;;;;;;;8.60;3.90;;;17.70;56.90;;;;;;5021282;28;20475;-56
2021/11/21 03:50:33;;;;;;;9.45;3.53;;;17.70;56.80;;;;;;5020777;28;20450;-55
2021/11/21 03:53:00;;;;;;;6.93;2.92;;;17.80;56.60;;;;;;5021221;28;20116;-54
2021/11/21 03:55:31;;;;;;;5.90;2.58;;;17.90;56.40;;;;;;5021658;28;20076;-55
2021/11/21 03:57:58;;;;;;;6.85;2.90;;;18.00;56.30;;;;;;5016940;28;20116;-56
2021/11/21 04:00:26;;;;;;;4.63;2.42;;;18.10;56.20;;;;;;5019567;28;20416;-56
2021/11/21 04:02:56;;;;;;;9.07;3.13;;;18.10;56.20;;;;;;5015326;28;20053;-55
2021/11/21 04:05:23;;;;;;;5.00;2.30;;;18.10;56.60;;;;;;5019934;28;20055;-54
2021/11/21 04:07:50;;;;;;;4.60;2.50;;;18.20;56.30;;;;;;5015447;28;20041;-52
2021/11/21 04:10:18;;;;;;;6.65;3.42;;;18.20;56.30;;;;;;5018092;28;20048;-56
2021/11/21 04:12:45;;;;;;;6.25;3.08;;;18.20;56.30;;;;;;5019899;28;20041;-57
2021/11/21 04:15:12;;;;;;;5.13;2.80;;;18.30;56.40;;;;;;5019944;28;20185;-57
2021/11/21 04:17:40;;;;;;;4.72;2.13;;;18.30;56.50;;;;;;5019729;28;20046;-57
2021/11/21 04:20:11;;;;;;;5.35;2.75;;;18.30;56.50;;;;;;5020023;28;20038;-56
2021/11/21 04:22:38;;;;;;;4.03;2.22;;;18.30;56.60;;;;;;5023284;28;20057;-55
2021/11/21 04:25:06;;;;;;;5.75;2.58;;;18.30;56.60;;;;;;5023234;28;20077;-56
2021/11/21 04:27:33;;;;;;;4.38;2.40;;;18.30;56.80;;;;;;5024257;28;20037;-56
2021/11/21 04:30:01;;;;;;;6.57;2.40;;;18.30;56.70;;;;;;5018134;28;20048;-56
2021/11/21 04:32:31;;;;;;;5.10;2.50;;;18.40;56.70;;;;;;5015301;28;20042;-57
2021/11/21 04:34:58;;;;;;;4.40;2.58;;;18.40;56.80;;;;;;5014349;28;20783;-56
2021/11/21 04:37:26;;;;;;;3.47;2.10;;;18.40;56.90;;;;;;5016757;28;20053;-57
2021/11/21 04:39:53;;;;;;;4.43;2.35;;;18.40;56.90;;;;;;5017530;28;20064;-56
2021/11/21 04:42:20;;;;;;;4.50;2.13;;;18.40;56.90;;;;;;5018248;28;20053;-55
2021/11/21 04:44:47;;;;;;;4.43;2.28;;;18.40;56.90;;;;;;5024550;28;20384;-57
2021/11/21 04:47:14;;;;;;;4.97;2.50;;;18.40;57.20;;;;;;5025798;28;20049;-54
2021/11/21 04:49:41;;;;;;;4.30;2.20;;;18.40;57.00;;;;;;5024698;28;20069;-55
2021/11/21 04:52:08;;;;;;;3.85;2.15;;;18.40;57.10;;;;;;5026033;28;20053;-55
2021/11/21 04:54:37;;;;;;;4.35;1.95;;;18.40;57.30;;;;;;5025570;28;20053;-55
2021/11/21 04:57:05;;;;;;;3.17;1.80;;;18.40;57.20;;;;;;5019148;28;20053;-55
2021/11/21 04:59:32;;;;;;;4.53;2.13;;;18.40;57.20;;;;;;5020993;28;20399;-58
2021/11/21 05:01:59;;;;;;;5.20;1.85;;;18.50;57.20;;;;;;5016611;28;20408;-55
2021/11/21 05:04:27;;;;;;;4.25;1.85;;;18.50;57.30;;;;;;5018610;28;20056;-55
2021/11/21 05:06:54;;;;;;;4.40;1.92;;;18.40;57.30;;;;;;5013296;28;20514;-55
2021/11/21 05:09:21;;;;;;;5.28;2.20;;;18.50;57.40;;;;;;5023719;28;20053;-55
2021/11/21 05:11:49;;;;;;;4.60;1.90;;;18.50;57.50;;;;;;5026477;28;20119;-55
2021/11/21 05:14:18;;;;;;;4.53;2.03;;;18.50;57.50;;;;;;5022031;28;20062;-56
2021/11/21 05:16:46;;;;;;;4.27;2.03;;;18.50;57.40;;;;;;5020042;28;20053;-55
2021/11/21 05:19:13;;;;;;;3.70;1.55;;;18.50;57.50;;;;;;5018825;28;20140;-55
2021/11/21 05:21:40;;;;;;;4.40;1.90;;;18.50;57.60;;;;;;5018308;28;20084;-55
2021/11/21 05:24:09;;;;;;;4.10;1.83;;;18.50;57.60;;;;;;5023839;28;20073;-55
2021/11/21 05:26:36;;;;;;;3.30;1.58;;;18.50;57.60;;;;;;5027093;28;20045;-55
2021/11/21 05:29:05;;;;;;;4.15;2.13;;;18.50;57.60;;;;;;5019142;28;20045;-56
2021/11/21 05:31:33;;;;;;;5.18;1.98;;;18.50;57.80;;;;;;5017698;28;20061;-56
2021/11/21 05:34:00;;;;;;;2.92;1.45;;;18.50;57.70;;;;;;5024688;28;20136;-55
2021/11/21 05:36:30;;;;;;;3.65;1.80;;;18.60;57.70;;;;;;5017096;28;20049;-56
2021/11/21 05:38:57;;;;;;;3.60;2.08;;;18.50;57.60;;;;;;5024720;28;20479;-56
2021/11/21 05:41:25;;;;;;;4.15;1.90;;;18.50;57.60;;;;;;5020780;28;20049;-55
2021/11/21 05:43:52;;;;;;;3.33;1.63;;;18.60;57.60;;;;;;5023020;28;20045;-54
2021/11/21 05:46:20;;;;;;;4.25;1.90;;;18.60;57.70;;;;;;5022348;28;20049;-56
2021/11/21 05:48:47;;;;;;;3.35;1.75;;;18.50;57.70;;;;;;5021729;28;20063;-56
2021/11/21 05:51:14;;;;;;;2.88;1.83;;;18.60;57.70;;;;;;5021183;28;20049;-56
2021/11/21 05:53:41;;;;;;;3.88;1.83;;;18.50;58.00;;;;;;5022618;28;20550;-56
2021/11/21 05:56:07;;;;;;;3.88;2.03;;;18.60;57.80;;;;;;5021773;28;20042;-55
2021/11/21 05:58:34;;;;;;;4.18;1.80;;;18.60;57.80;;;;;;5021494;28;20045;-55
2021/11/21 06:01:01;;;;;;;4.72;1.95;;;18.60;57.80;;;;;;5013736;28;20042;-56
2021/11/21 06:03:36;;;;;;;4.15;2.00;;;18.60;58.10;;;;;;5016924;28;20042;-57
2021/11/21 06:06:03;;;;;;;3.78;1.70;;;18.60;58.00;;;;;;5016371;28;20045;-56
2021/11/21 06:08:30;;;;;;;3.28;1.90;;;18.60;58.20;;;;;;5018575;28;20049;-56
2021/11/21 06:10:57;;;;;;;3.30;1.92;;;18.50;57.90;;;;;;5018435;28;20038;-55
2021/11/21 06:13:25;;;;;;;3.53;1.58;;;18.50;58.00;;;;;;5017380;28;20302;-56
2021/11/21 06:15:52;;;;;;;3.25;1.70;;;18.50;58.00;;;;;;5018406;28;20056;-55
2021/11/21 06:18:19;;;;;;;4.53;1.80;;;18.60;58.00;;;;;;5012857;28;20466;-56
2021/11/21 06:20:48;;;;;;;3.75;1.95;;;18.60;58.20;;;;;;5017539;28;20045;-57
2021/11/21 06:23:15;;;;;;;3.53;1.85;;;18.60;58.20;;;;;;5015050;28;20053;-56
2021/11/21 06:25:43;;;;;;;2.85;1.65;;;18.60;58.10;;;;;;5021085;28;20049;-56
2021/11/21 06:28:16;;;;;;;3.97;1.75;;;18.60;58.20;;;;;;5024033;28;20100;-56
2021/11/21 06:30:46;;;;;;;;;;;18.60;58.10;;;;;;5023956;28;20049;-57
2021/11/21 06:33:13;;;;;;;2.70;1.58;;;18.60;58.20;;;;;;5015583;28;19925;-58
2021/11/21 06:35:40;;;;;;;4.35;1.80;;;18.60;58.20;;;;;;5022104;28;20050;-56
2021/11/21 06:38:09;;;;;;;3.10;1.73;;;18.60;58.30;;;;;;5020802;28;20427;-57
2021/11/21 06:40:36;;;;;;;4.70;1.90;;;18.60;58.20;;;;;;5020219;28;20069;-56
2021/11/21 06:43:03;;;;;;;3.65;1.83;;;18.60;58.30;;;;;;5022266;28;20340;-55
2021/11/21 06:45:30;;;;;;;3.53;1.75;;;18.60;58.20;;;;;;5021309;28;20045;-56
2021/11/21 06:47:57;;;;;;;2.75;1.45;;;18.60;58.20;;;;;;5024471;28;20396;-57
2021/11/21 06:50:24;;;;;;;3.30;1.63;;;18.50;58.20;;;;;;5022362;28;21109;-55
2021/11/21 06:52:51;;;;;;;3.28;1.58;;;18.60;58.40;;;;;;5023896;28;20060;-58
2021/11/21 06:55:19;;;;;;;3.05;1.35;;;18.60;58.30;;;;;;5022711;28;20092;-56
2021/11/21 06:57:46;;;;;;;3.08;1.50;;;18.60;58.50;;;;;;5021859;28;20057;-55
2021/11/21 07:00:15;;;;;;;2.30;1.20;;;18.60;58.40;;;;;;5018968;28;20057;-56
2021/11/21 07:02:43;;;;;;;3.87;1.73;;;18.60;58.30;;;;;;5022935;28;20435;-56
2021/11/21 07:05:10;;;;;;;3.65;1.50;;;18.60;58.40;;;;;;5023436;28;20045;-55
2021/11/21 07:07:38;;;;;;;3.47;1.60;;;18.60;58.70;;;;;;5024769;28;20053;-55
2021/11/21 07:10:06;;;;;;;3.08;1.42;;;18.60;58.60;;;;;;5023570;28;20050;-55
2021/11/21 07:12:34;;;;;;;2.60;1.30;;;18.60;58.40;;;;;;5023430;28;20513;-56
2021/11/21 07:15:01;;;;;;;3.33;1.80;;;18.60;58.40;;;;;;5022259;28;20467;-57
2021/11/21 07:17:29;;;;;;;2.13;1.23;;;18.60;58.50;;;;;;5021656;28;20099;-56
2021/11/21 07:19:56;;;;;;;4.78;1.58;;;18.60;58.50;;;;;;5022775;28;20056;-56
2021/11/21 07:22:23;;;;;;;3.40;1.48;;;18.60;58.50;;;;;;5024892;28;20045;-56
2021/11/21 07:24:50;;;;;;;3.40;1.50;;;18.60;58.70;;;;;;5020506;28;20127;-55
2021/11/21 07:27:17;;;;;;;4.15;1.75;;;18.60;58.60;;;;;;5016051;28;20718;-57
2021/11/21 07:29:46;;;;;;;3.30;1.35;;;18.60;58.60;;;;;;5016591;28;20068;-56
2021/11/21 07:32:12;;;;;;;2.70;1.42;;;18.60;58.60;;;;;;5016366;28;20407;-55
2021/11/21 07:34:39;;;;;;;2.80;1.20;;;18.60;58.60;;;;;;5017767;28;20045;-56
2021/11/21 07:37:06;;;;;;;3.85;1.50;;;18.60;58.70;;;;;;5019549;28;20045;-56
2021/11/21 07:39:33;;;;;;;2.45;1.27;;;18.60;58.60;;;;;;5021529;28;20128;-56
2021/11/21 07:42:00;;;;;;;3.08;1.45;;;18.60;58.70;;;;;;5017325;28;20410;-55
2021/11/21 07:44:33;;;;;;;2.53;1.30;;;18.60;58.80;;;;;;5019565;28;20041;-55
2021/11/21 07:47:02;;;;;;;3.55;1.58;;;18.60;58.70;;;;;;5020363;28;20391;-55
2021/11/21 07:49:29;;;;;;;3.17;1.30;;;18.60;58.70;;;;;;5021437;28;20045;-56
2021/11/21 07:51:56;;;;;;;3.20;1.30;;;18.60;58.70;;;;;;5020519;28;20050;-56
2021/11/21 07:54:23;;;;;;;2.95;1.40;;;18.60;58.90;;;;;;5020084;28;20053;-57
2021/11/21 07:56:50;;;;;;;3.35;1.40;;;18.60;58.90;;;;;;5019297;28;20065;-53
2021/11/21 07:59:17;;;;;;;3.03;1.52;;;18.60;58.70;;;;;;5016745;28;20049;-56
2021/11/21 08:01:46;;;;;;;3.13;1.27;;;18.60;58.80;;;;;;5018200;28;20397;-57
2021/11/21 08:04:14;;;;;;;3.45;1.48;;;18.60;58.80;;;;;;5015412;28;20669;-57
2021/11/21 08:06:41;;;;;;;3.17;1.48;;;18.60;58.80;;;;;;5019700;28;20640;-56
2021/11/21 08:09:08;;;;;;;2.58;1.60;;;18.60;58.80;;;;;;5014547;28;20943;-55
2021/11/21 08:11:35;;;;;;;4.22;1.70;;;18.60;58.80;;;;;;5021057;28;20061;-54
2021/11/21 08:14:02;;;;;;;3.58;1.42;;;18.60;58.80;;;;;;5021713;28;20406;-55
2021/11/21 08:16:34;;;;;;;3.17;1.40;;;18.60;58.80;;;;;;5021780;28;20128;-55
2021/11/21 08:19:01;;;;;;;3.08;1.52;;;18.60;58.80;;;;;;5020543;28;20037;-55
2021/11/21 08:21:30;;;;;;;3.90;1.58;;;18.60;58.80;;;;;;5020700;28;20588;-55
2021/11/21 08:23:57;;;;;;;2.28;1.08;;;18.60;58.80;;;;;;5002359;28;20050;-56
2021/11/21 08:26:24;;;;;;;2.30;1.20;;;18.60;58.80;;;;;;5004729;28;20053;-55
2021/11/21 08:28:51;;;;;;;3.45;1.38;;;18.60;58.90;;;;;;5008723;28;20581;-54
2021/11/21 08:31:18;;;;;;;2.92;1.70;;;18.60;58.80;;;;;;5007554;28;20056;-56
2021/11/21 08:33:45;;;;;;;3.30;1.65;;;18.60;58.80;;;;;;4985598;28;20491;-55
2021/11/21 08:36:12;;;;;;;3.55;1.42;;;18.60;58.90;;;;;;4989897;28;20060;-56
2021/11/21 08:38:40;;;;;;;3.67;1.48;;;18.60;58.70;;;;;;4987751;28;20050;-56
2021/11/21 08:41:07;;;;;;;2.28;1.10;;;18.60;58.70;;;;;;4986857;28;20384;-56
2021/11/21 08:43:34;;;;;;;3.40;1.30;;;18.60;58.80;;;;;;4988035;28;20459;-57
2021/11/21 08:46:01;;;;;;;2.15;1.40;;;18.60;58.90;;;;;;4987677;28;20498;-55
2021/11/21 08:48:29;;;;;;;2.92;1.25;;;18.60;58.80;;;;;;4988110;28;20054;-56
2021/11/21 08:50:56;;;;;;;2.50;1.23;;;18.60;58.80;;;;;;4988551;28;20050;-55
2021/11/21 08:53:24;;;;;;;3.00;1.35;;;18.60;58.70;;;;;;4990088;28;20135;-56
2021/11/21 08:55:52;;;;;;;4.57;1.83;;;18.60;58.90;;;;;;4989092;28;20050;-55
2021/11/21 08:58:19;;;;;;;2.95;1.42;;;18.60;58.80;;;;;;4991942;28;20520;-56
2021/11/21 09:00:46;;;;;;;2.88;1.35;;;18.60;58.80;;;;;;4987870;28;20097;-57
2021/11/21 09:03:13;;;;;;;3.20;1.17;;;18.60;58.90;;;;;;4989458;28;20054;-57
2021/11/21 09:05:41;;;;;;;3.95;1.42;;;18.60;58.80;;;;;;4987972;28;20514;-54
2021/11/21 09:08:08;;;;;;;2.65;1.20;;;18.60;58.90;;;;;;4986077;28;20862;-55
2021/11/21 09:10:35;;;;;;;3.05;1.60;;;18.60;58.80;;;;;;4987988;28;20049;-56
2021/11/21 09:13:03;;;;;;;4.18;1.65;;;18.60;58.80;;;;;;4988832;28;20078;-56
2021/11/21 09:15:31;;;;;;;2.97;1.40;;;18.60;58.90;;;;;;4987147;28;20160;-56
2021/11/21 09:17:58;;;;;;;2.67;1.20;;;18.60;59.00;;;;;;5007825;28;20053;-55
2021/11/21 09:20:25;;;;;;;1.90;1.10;;;18.60;58.90;;;;;;5004523;28;20144;-55
2021/11/21 09:22:53;;;;;;;2.75;1.40;;;18.60;58.90;;;;;;5014362;28;20061;-55
2021/11/21 09:25:20;;;;;;;3.60;1.80;;;18.60;58.90;;;;;;5018683;28;20398;-55
2021/11/21 09:27:47;;;;;;;2.90;1.40;;;18.60;58.90;;;;;;5025464;28;20049;-56
2021/11/21 09:30:16;;;;;;;3.58;1.45;;;18.70;58.80;;;;;;5018159;28;20049;-55
2021/11/21 09:32:43;;;;;;;3.03;1.63;;;18.60;58.90;;;;;;5018225;28;20072;-56
2021/11/21 09:35:11;;;;;;;2.72;1.33;;;18.70;59.00;;;;;;5015818;28;20426;-57
2021/11/21 09:37:38;;;;;;;2.65;1.23;;;18.70;59.00;;;;;;5015778;28;20407;-56
2021/11/21 09:40:07;;;;;;;2.55;1.25;;;18.60;58.90;;;;;;5017689;28;20759;-56
2021/11/21 09:42:35;;;;;;;2.22;1.27;;;18.60;58.90;;;;;;5019927;28;23307;-56
2021/11/21 09:45:02;;;;;;;2.45;1.27;;;18.70;58.90;;;;;;5018020;28;20487;-56
2021/11/21 09:47:32;;;;;;;2.17;1.23;;;18.60;58.90;;;;;;5020622;28;20045;-56
2021/11/21 09:50:01;;;;;;;2.72;1.23;;;18.60;58.90;;;;;;5017206;28;20057;-56
2021/11/21 09:52:31;;;;;;;2.40;1.27;;;18.70;59.00;;;;;;5020021;28;20475;-56
2021/11/21 09:54:58;;;;;;;3.17;1.30;;;18.70;59.00;;;;;;5023528;28;20056;-56
2021/11/21 09:57:25;;;;;;;3.00;1.23;;;18.70;59.00;;;;;;5024534;28;20049;-56
2021/11/21 09:59:56;;;;;;;2.63;1.30;;;18.70;59.00;;;;;;5023206;28;20483;-54
2021/11/21 10:02:29;;;;;;;2.40;1.25;;;18.70;59.00;;;;;;5025544;28;20057;-56
2021/11/21 10:04:58;;;;;;;3.03;1.38;;;18.70;59.00;;;;;;5023074;28;20381;-54
2021/11/21 10:07:28;;;;;;;3.30;1.27;;;18.70;59.00;;;;;;5024654;28;20050;-56
2021/11/21 10:09:56;;;;;;;2.50;1.17;;;18.70;59.00;;;;;;5024762;28;20140;-55
2021/11/21 10:12:24;;;;;;;2.65;1.15;;;18.70;58.90;;;;;;5022985;28;20449;-57
2021/11/21 10:14:58;;;;;;;3.42;1.20;;;18.70;59.00;;;;;;5022375;28;20052;-55
2021/11/21 10:17:27;;;;;;;2.50;1.50;;;18.70;59.00;;;;;;5023673;28;20037;-56
2021/11/21 10:20:11;;;;;;;3.97;1.65;;;18.70;59.00;;;;;;5023330;28;20116;-56
2021/11/21 10:22:59;;;;;;;3.65;1.42;;;18.70;59.00;;;;;;5023259;28;20052;-55
2021/11/21 10:25:54;;;;;;;3.20;1.70;;;18.70;58.90;;;;;;5017602;28;20053;-57
2021/11/21 10:28:24;;;;;;;2.40;1.17;;;18.70;58.90;;;;;;5022070;28;20068;-55
2021/11/21 10:31:16;;;;;;;2.55;1.33;;;18.60;59.00;;;;;;5019457;28;20045;-56
2021/11/21 10:33:45;;;;;;;3.20;1.38;;;18.70;59.00;;;;;;5028385;28;20099;-56
2021/11/21 10:36:20;;;;;;;3.15;1.30;;;18.70;59.00;;;;;;5028789;28;20045;-56
2021/11/21 10:38:49;;;;;;;2.70;1.55;;;18.70;59.00;;;;;;5023218;28;20507;-55
2021/11/21 10:41:23;;;;;;;2.85;1.30;;;18.70;59.00;;;;;;5017698;28;20054;-56
2021/11/21 10:43:56;;;;;;;3.33;1.42;;;18.70;59.00;;;;;;5022564;28;20057;-56
2021/11/21 10:46:35;;;;;;;2.50;1.20;;;18.60;59.00;;;;;;5018359;28;20252;-56
2021/11/21 10:49:22;;;;;;;3.65;1.65;;;18.70;59.00;;;;;;5019597;28;20064;-56
2021/11/21 10:52:04;;;;;;;2.58;1.25;;;18.70;59.00;;;;;;5022230;28;20164;-54
2021/11/21 10:54:33;;;;;;;2.97;1.30;;;18.70;59.00;;;;;;5019806;28;20566;-55
2021/11/21 10:57:02;;;;;;;2.83;1.23;;;18.70;59.00;;;;;;5020043;28;20095;-55
2021/11/21 10:59:39;;;;;;;2.88;1.27;;;18.70;59.00;;;;;;5019574;28;20056;-55
2021/11/21 11:02:13;;;;;;;3.92;1.70;;;18.70;59.00;;;;;;5018337;28;20056;-55
2021/11/21 11:04:55;;;;;;;3.25;1.52;;;18.70;58.90;;;;;;5023272;28;20115;-56
2021/11/21 11:07:24;;;;;;;2.17;1.05;;;18.80;58.90;;;;;;5017693;28;20742;-56
2021/11/21 11:09:54;;;;;;;2.97;1.17;;;18.90;58.80;;;;;;5016998;28;20672;-54
2021/11/21 11:12:22;;;;;;;2.65;1.30;;;18.90;58.80;;;;;;5021844;28;20049;-55
2021/11/21 11:14:49;;;;;;;2.05;1.23;;;19.00;58.80;;;;;;5018642;28;20582;-55
2021/11/21 11:17:17;;;;;;;2.83;1.35;;;19.10;58.80;;;;;;5016805;28;20049;-56
2021/11/21 11:19:44;;;;;;;3.15;1.15;;;19.10;58.80;;;;;;5019841;28;20054;-56
2021/11/21 11:22:12;;;;;;;2.00;1.02;;;19.20;58.80;;;;;;5016031;28;20562;-55
2021/11/21 11:24:44;;;;;;;2.55;1.10;;;19.20;58.70;;;;;;5012571;28;20053;-56
2021/11/21 11:27:22;;;;;;;2.67;1.10;;;19.20;58.70;;;;;;5018186;28;20042;-56
2021/11/21 11:29:51;;;;;;;2.13;1.00;;;19.30;58.80;;;;;;5022678;28;20763;-55
2021/11/21 11:32:28;;;;;;;2.45;1.15;;;19.30;58.80;;;;;;5019908;28;20049;-55
2021/11/21 11:34:56;;;;;;;4.15;1.25;;;19.30;58.80;;;;;;5019212;28;20539;-56
2021/11/21 11:37:41;;;;;;;3.53;1.55;;;19.30;58.80;;;;;;5020956;28;20676;-55
2021/11/21 11:40:41;;;;;;;2.95;1.10;;;19.20;58.70;;;;;;5018846;28;20576;-56
2021/11/21 11:43:29;;;;;;;2.95;1.30;;;19.30;58.60;;;;;;5016860;28;20162;-57
2021/11/21 11:45:59;;;;;;;2.25;1.20;;;19.30;58.70;;;;;;5022067;28;20119;-56
2021/11/21 11:48:40;;;;;;;2.78;1.30;;;19.20;58.80;;;;;;5018780;28;20041;-56
2021/11/21 11:51:10;;;;;;;2.67;1.25;;;19.20;58.70;;;;;;5021027;28;20178;-54
2021/11/21 11:53:38;;;;;;;;;;;19.20;58.70;;;;;;5020430;28;20053;-55
2021/11/21 11:56:19;;;;;;;3.75;1.08;;;19.20;58.80;;;;;;5017173;28;19925;-55
2021/11/21 11:58:50;;;;;;;2.20;1.00;;;19.20;58.70;;;;;;5019963;28;20053;-56
2021/11/21 12:01:51;;;;;;;2.63;1.10;;;19.20;58.70;;;;;;5012925;28;20053;-56
2021/11/21 12:04:49;;;;;;;2.83;1.20;;;19.10;58.70;;;;;;5017752;28;20064;-56
2021/11/21 12:07:43;;;;;;;1.95;1.10;;;19.10;58.60;;;;;;5011233;28;20052;-56
2021/11/21 12:10:18;;;;;;;2.90;1.20;;;19.10;58.70;;;;;;5019636;28;20355;-55
2021/11/21 12:13:07;;;;;;;2.58;0.88;;;19.10;58.60;;;;;;5020685;28;20557;-55
2021/11/21 12:15:50;;;;;;;1.73;1.05;;;19.10;58.70;;;;;;5023041;28;20107;-56
2021/11/21 12:18:17;;;;;;;2.58;1.20;;;19.10;58.80;;;;;;5021341;28;20084;-56
2021/11/21 12:20:54;;;;;;;2.47;1.00;;;19.10;58.70;;;;;;5021369;28;20108;-56
2021/11/21 12:23:59;;;;;;;2.28;1.15;;;19.10;58.50;;;;;;5010427;28;20056;-56
2021/11/21 12:26:38;;;;;;;2.83;1.30;;;19.10;58.50;;;;;;5015131;28;20184;-56
2021/11/21 12:29:33;;;;;;;3.17;1.20;;;19.00;58.50;;;;;;5016058;28;20049;-54
2021/11/21 12:32:22;;;;;;;2.08;0.98;;;19.00;58.50;;;;;;5017720;28;20053;-57
2021/11/21 12:34:50;;;;;;;2.37;1.30;;;19.00;58.50;;;;;;5015253;28;20111;-56
2021/11/21 12:37:34;;;;;;;2.35;1.20;;;19.00;58.60;;;;;;5020458;28;20437;-55
2021/11/21 12:40:14;;;;;;;2.88;1.50;;;19.00;58.50;;;;;;5016903;28;20497;-55
2021/11/21 12:42:42;;;;;;;;;;;18.90;58.60;;;;;;5013718;28;20051;-56
2021/11/21 12:45:13;;;;;;;2.38;1.20;;;19.00;58.70;;;;;;5017759;28;19921;-56
2021/11/21 12:47:41;;;;;;;1.92;0.90;;;18.90;58.80;;;;;;5022565;28;20567;-56
2021/11/21 12:50:18;;;;;;;2.38;1.20;;;19.00;58.80;;;;;;5024541;28;20045;-55
2021/11/21 12:52:55;;;;;;;3.17;1.40;;;19.00;58.60;;;;;;5025657;28;20046;-56
2021/11/21 12:55:23;;;;;;;2.67;1.13;;;19.00;58.60;;;;;;5024108;28;20053;-55
2021/11/21 12:57:52;;;;;;;2.28;1.10;;;19.00;58.70;;;;;;5025321;28;20045;-52